createdAt,value
2023-03-22T00:02:36.511Z,100225.88
2023-03-22T00:05:40.037Z,100220.81
2023-03-22T00:08:42.023Z,100225.16
2023-03-22T00:11:43.860Z,100216.53
2023-03-22T00:14:45.610Z,100218.88
2023-03-22T00:17:47.794Z,100218.47
2023-03-22T00:20:51.041Z,100219.00
2023-03-22T00:23:52.874Z,100219.63
2023-03-22T00:26:54.593Z,100205.56
2023-03-22T00:29:56.220Z,100206.78
2023-03-22T00:32:58.062Z,100195.97
2023-03-22T00:36:06.671Z,100189.50
2023-03-22T00:39:08.804Z,100191.44
2023-03-22T00:42:11.112Z,100198.66
2023-03-22T00:45:13.327Z,100190.25
2023-03-22T00:48:15.010Z,100190.34
2023-03-22T00:51:18.183Z,100176.53
2023-03-22T00:54:20.293Z,100168.22
2023-03-22T00:57:23.211Z,100164.84
2023-03-22T01:00:25.389Z,100168.94
2023-03-22T01:03:27.148Z,100175.13
2023-03-22T01:06:29.675Z,100169.22
2023-03-22T01:09:33.736Z,100166.63
2023-03-22T01:12:36.000Z,100157.88
2023-03-22T01:15:37.898Z,100164.09
2023-03-22T01:18:40.061Z,100165.75
2023-03-22T01:21:42.602Z,100158.97
2023-03-22T01:24:44.392Z,100165.41
2023-03-22T01:27:46.175Z,100154.94
2023-03-22T01:30:47.841Z,100150.97
2023-03-22T01:33:49.495Z,100152.31
2023-03-22T01:36:51.268Z,100146.94
2023-03-22T01:39:56.730Z,100145.66
2023-03-22T01:42:59.032Z,100139.03
2023-03-22T01:46:01.579Z,100144.06
2023-03-22T01:49:06.529Z,100139.63
2023-03-22T01:52:14.778Z,100134.47
2023-03-22T01:55:41.125Z,100133.75
2023-03-22T01:58:48.280Z,100137.38
2023-03-22T02:01:53.730Z,100134.09
2023-03-22T02:04:58.078Z,100125.06
2023-03-22T02:08:04.370Z,100117.66
2023-03-22T02:11:42.186Z,100108.63
2023-03-22T02:15:30.590Z,100104.31
2023-03-22T02:19:32.056Z,100116.38
2023-03-22T02:22:39.452Z,100108.63
2023-03-22T02:25:47.166Z,100110.06
2023-03-22T02:28:57.651Z,100105.28
2023-03-22T02:32:23.772Z,100102.28
2023-03-22T02:36:03.372Z,100107.34
2023-03-22T02:39:32.711Z,100104.25
2023-03-22T02:42:45.019Z,100097.56
2023-03-22T02:45:57.277Z,100096.50
2023-03-22T02:49:13.850Z,100089.50
2023-03-22T02:52:21.590Z,100095.63
2023-03-22T02:55:35.323Z,100099.63
2023-03-22T02:58:53.128Z,100097.50
2023-03-22T03:01:59.092Z,100096.91
2023-03-22T03:05:01.592Z,100099.25
2023-03-22T03:08:04.312Z,100093.03
2023-03-22T03:11:08.791Z,100089.31
2023-03-22T03:14:24.550Z,100093.31
2023-03-22T03:17:58.305Z,100091.34
2023-03-22T03:21:25.935Z,100096.97
2023-03-22T03:24:51.381Z,100080.94
2023-03-22T03:28:31.559Z,100083.50
2023-03-22T03:31:33.641Z,100080.22
2023-03-22T03:34:52.699Z,100081.97
2023-03-22T03:38:03.372Z,100078.69
2023-03-22T03:41:11.312Z,100073.44
2023-03-22T03:44:14.296Z,100069.31
2023-03-22T03:47:16.830Z,100059.72
2023-03-22T03:50:20.437Z,100058.78
2023-03-22T03:53:22.409Z,100059.59
2023-03-22T03:56:24.207Z,100050.25
2023-03-22T03:59:28.560Z,100052.22
2023-03-22T04:02:31.801Z,100052.56
2023-03-22T04:05:35.565Z,100042.59
2023-03-22T04:08:37.313Z,100042.81
2023-03-22T04:11:39.363Z,100039.44
2023-03-22T04:14:41.869Z,100038.63
2023-03-22T04:17:53.892Z,100042.97
2023-03-22T04:20:58.216Z,100036.75
2023-03-22T04:24:02.943Z,100036.63
2023-03-22T04:27:09.998Z,100043.44
2023-03-22T04:30:24.802Z,100045.53
2023-03-22T04:33:39.603Z,100040.75
2023-03-22T04:36:52.610Z,100040.63
2023-03-22T04:40:01.324Z,100031.28
2023-03-22T04:43:21.424Z,100028.59
2023-03-22T04:46:36.873Z,100030.13
2023-03-22T04:49:41.821Z,100031.03
2023-03-22T04:52:43.671Z,100031.16
2023-03-22T04:55:46.039Z,100031.16
2023-03-22T04:58:48.103Z,100030.94
2023-03-22T05:01:51.751Z,100028.38
2023-03-22T05:04:57.478Z,100022.41
2023-03-22T05:08:07.893Z,100022.16
2023-03-22T05:11:13.777Z,100018.06
2023-03-22T05:14:19.453Z,100021.34
2023-03-22T05:17:21.722Z,100020.97
2023-03-22T05:20:25.645Z,100016.66
2023-03-22T05:23:42.789Z,100019.25
2023-03-22T05:26:46.394Z,100018.28
2023-03-22T05:29:49.842Z,100014.41
2023-03-22T05:33:03.412Z,100011.84
2023-03-22T05:36:09.489Z,100007.28
2023-03-22T05:39:20.413Z,100006.00
2023-03-22T05:42:22.084Z,99994.41
2023-03-22T05:45:24.165Z,99996.63
2023-03-22T05:48:39.057Z,99994.75
2023-03-22T05:51:42.666Z,99992.19
2023-03-22T05:54:46.773Z,99993.69
2023-03-22T05:57:53.840Z,99988.44
2023-03-22T06:01:00.906Z,99980.47
2023-03-22T06:04:21.278Z,99980.81
2023-03-22T06:07:29.122Z,99972.94
2023-03-22T06:10:35.935Z,99970.34
2023-03-22T06:13:38.041Z,99961.81
2023-03-22T06:16:41.384Z,99965.31
2023-03-22T06:19:43.074Z,99962.47
2023-03-22T06:22:46.319Z,99961.91
2023-03-22T06:25:48.177Z,99948.66
2023-03-22T06:28:51.231Z,99957.53
2023-03-22T06:31:53.364Z,99958.34
2023-03-22T06:34:55.385Z,99961.81
2023-03-22T06:37:58.892Z,99959.75
2023-03-22T06:41:00.788Z,99959.56
2023-03-22T06:44:02.949Z,99949.91
2023-03-22T06:47:37.890Z,99946.50
2023-03-22T06:50:44.121Z,99949.56
2023-03-22T06:53:49.412Z,99934.53
2023-03-22T06:56:51.146Z,99928.00
2023-03-22T06:59:52.856Z,99921.22
2023-03-22T07:02:54.871Z,99923.50
2023-03-22T07:06:14.732Z,99922.22
2023-03-22T07:09:20.760Z,99931.00
2023-03-22T07:12:24.893Z,99935.84
2023-03-22T07:15:27.067Z,99931.09
2023-03-22T07:18:35.913Z,99935.81
2023-03-22T07:21:37.770Z,99933.72
2023-03-22T07:24:54.053Z,99944.53
2023-03-22T07:28:00.444Z,99927.06
2023-03-22T07:31:10.024Z,99923.59
2023-03-22T07:34:38.016Z,99917.31
2023-03-22T07:37:46.105Z,99919.13
2023-03-22T07:40:59.799Z,99911.75
2023-03-22T07:44:19.233Z,99910.09
2023-03-22T07:47:40.734Z,99902.88
2023-03-22T07:50:56.491Z,99899.16
2023-03-22T07:54:01.576Z,99898.13
2023-03-22T07:57:05.381Z,99906.09
2023-03-22T08:00:11.151Z,99902.13
2023-03-22T08:03:25.396Z,99892.78
2023-03-22T08:06:43.794Z,99901.50
2023-03-22T08:09:46.147Z,99901.78
2023-03-22T08:12:48.120Z,99900.31
2023-03-22T08:16:02.284Z,99882.59
2023-03-22T08:19:06.807Z,99873.97
2023-03-22T08:22:11.985Z,99875.91
2023-03-22T08:25:33.635Z,99872.78
2023-03-22T08:28:42.511Z,99863.06
2023-03-22T08:31:45.176Z,99858.56
2023-03-22T08:34:47.448Z,99849.50
2023-03-22T08:37:54.829Z,99857.22
2023-03-22T08:40:59.697Z,99848.00
2023-03-22T08:44:01.922Z,99852.25
2023-03-22T08:47:05.593Z,99850.78
2023-03-22T08:50:09.264Z,99843.16
2023-03-22T08:53:22.315Z,99837.00
2023-03-22T08:56:38.222Z,99844.84
2023-03-22T08:59:58.600Z,99850.31
2023-03-22T09:03:18.764Z,99848.16
2023-03-22T09:06:20.699Z,99843.72
2023-03-22T09:09:22.848Z,99843.00
2023-03-22T09:12:27.840Z,99833.50
2023-03-22T09:15:29.865Z,99822.78
2023-03-22T09:18:47.169Z,99819.06
2023-03-22T09:21:55.581Z,99812.16
2023-03-22T09:25:13.406Z,99806.19
2023-03-22T09:28:19.297Z,99807.38
2023-03-22T09:31:21.251Z,99784.47
2023-03-22T09:34:32.844Z,99797.66
2023-03-22T09:37:35.465Z,99791.50
2023-03-22T09:40:43.802Z,99801.63
2023-03-22T09:43:54.082Z,99788.63
2023-03-22T09:47:00.105Z,99787.63
2023-03-22T09:50:13.167Z,99783.41
2023-03-22T09:53:17.456Z,99779.81
2023-03-22T09:56:31.838Z,99782.44
2023-03-22T09:59:49.697Z,99775.59
2023-03-22T10:03:19.159Z,99778.50
2023-03-22T10:06:24.827Z,99761.06
2023-03-22T10:09:41.218Z,99763.19
2023-03-22T10:12:46.943Z,99763.53
2023-03-22T10:16:16.989Z,99754.94
2023-03-22T10:19:35.668Z,99754.63
2023-03-22T10:22:44.076Z,99750.03
2023-03-22T10:25:47.378Z,99754.88
2023-03-22T10:29:13.676Z,99751.22
2023-03-22T10:32:54.685Z,99751.06
2023-03-22T10:36:01.352Z,99741.88
2023-03-22T10:39:28.613Z,99744.69
2023-03-22T10:42:31.616Z,99746.13
2023-03-22T10:45:36.867Z,99747.66
2023-03-22T10:48:44.093Z,99757.69
2023-03-22T10:51:56.756Z,99759.13
2023-03-22T10:55:03.009Z,99760.22
2023-03-22T10:58:19.662Z,99757.25
2023-03-22T11:01:36.995Z,99747.88
2023-03-22T11:04:39.081Z,99737.59
2023-03-22T11:07:44.676Z,99725.09
2023-03-22T11:10:51.372Z,99736.47
2023-03-22T11:14:14.350Z,99732.16
2023-03-22T11:17:23.294Z,99730.84
2023-03-22T11:20:25.276Z,99736.75
2023-03-22T11:23:29.954Z,99735.22
2023-03-22T11:26:38.812Z,99737.34
2023-03-22T11:29:49.159Z,99739.53
2023-03-22T11:33:01.706Z,99736.47
2023-03-22T11:36:21.486Z,99729.16
2023-03-22T11:39:30.224Z,99729.31
2023-03-22T11:42:34.802Z,99737.94
2023-03-22T11:45:41.406Z,99748.75
2023-03-22T11:48:45.327Z,99747.66
2023-03-22T11:51:47.534Z,99753.38
2023-03-22T11:54:50.285Z,99744.50
2023-03-22T11:57:55.892Z,99741.88
2023-03-22T12:01:01.779Z,99744.44
2023-03-22T12:04:08.867Z,99740.75
2023-03-22T12:07:16.238Z,99730.50
2023-03-22T12:10:42.364Z,99728.56
2023-03-22T12:13:50.154Z,99740.94
2023-03-22T12:17:01.051Z,99749.00
2023-03-22T12:20:10.962Z,99745.03
2023-03-22T12:23:16.660Z,99744.19
2023-03-22T12:26:24.072Z,99749.47
2023-03-22T12:29:27.853Z,99741.91
2023-03-22T12:32:38.668Z,99744.59
2023-03-22T12:35:45.208Z,99736.13
2023-03-22T12:38:53.950Z,99741.72
2023-03-22T12:42:01.284Z,99727.88
2023-03-22T12:45:11.386Z,99730.78
2023-03-22T12:48:20.930Z,99726.63
2023-03-22T12:51:22.994Z,99727.00
2023-03-22T12:54:26.088Z,99727.66
2023-03-22T12:57:28.557Z,99715.56
2023-03-22T13:00:58.749Z,99714.81
2023-03-22T13:04:43.347Z,99708.97
2023-03-22T13:07:48.009Z,99702.75
2023-03-22T13:10:58.030Z,99694.75
2023-03-22T13:13:59.809Z,99694.63
2023-03-22T13:17:01.827Z,99698.91
2023-03-22T13:20:08.566Z,99696.03
2023-03-22T13:23:25.020Z,99699.66
2023-03-22T13:26:57.354Z,99698.59
2023-03-22T13:29:59.937Z,99694.91
2023-03-22T13:33:13.605Z,99696.94
2023-03-22T13:36:32.129Z,99694.69
2023-03-22T13:39:36.473Z,99691.41
2023-03-22T13:42:40.399Z,99699.16
2023-03-22T13:46:25.480Z,99697.44
2023-03-22T13:49:51.244Z,99699.09
2023-03-22T13:52:59.021Z,99708.25
2023-03-22T13:56:07.098Z,99707.41
2023-03-22T13:59:19.168Z,99705.50
2023-03-22T14:02:33.963Z,99708.09
2023-03-22T14:05:38.809Z,99718.31
2023-03-22T14:08:44.328Z,99718.34
2023-03-22T14:11:58.430Z,99708.91
2023-03-22T14:15:06.799Z,99719.94
2023-03-22T14:18:32.896Z,99709.66
2023-03-22T14:21:39.118Z,99709.03
